createdAt,value
2023-03-29T00:02:30.384Z,5.49
2023-03-29T00:05:01.805Z,5.50
2023-03-29T00:07:30.137Z,5.45
2023-03-29T00:09:56.680Z,5.51
2023-03-29T00:12:23.094Z,5.46
2023-03-29T00:14:49.549Z,5.52
2023-03-29T00:17:15.969Z,5.44
2023-03-29T00:19:46.497Z,5.45
2023-03-29T00:22:13.931Z,5.42
2023-03-29T00:24:40.805Z,5.37
2023-03-29T00:27:07.218Z,5.40
2023-03-29T00:29:33.740Z,5.42
2023-03-29T00:32:00.193Z,5.41
2023-03-29T00:34:30.705Z,5.45
2023-03-29T00:36:58.324Z,5.49
2023-03-29T00:39:26.450Z,5.38
2023-03-29T00:41:53.846Z,5.46
2023-03-29T00:44:57.941Z,5.54
2023-03-29T00:47:58.321Z,5.44
2023-03-29T00:50:30.809Z,5.45
2023-03-29T00:53:09.050Z,5.44
2023-03-29T00:55:57.850Z,5.41
2023-03-29T00:58:30.491Z,5.46
2023-03-29T01:01:20.827Z,5.45
2023-03-29T01:03:54.474Z,5.43
2023-03-29T01:06:24.813Z,5.48
2023-03-29T01:08:56.099Z,5.52
2023-03-29T01:11:27.027Z,5.51
2023-03-29T01:13:57.771Z,5.52
2023-03-29T01:16:28.430Z,5.54
2023-03-29T01:18:58.230Z,5.51
2023-03-29T01:21:49.321Z,5.58
2023-03-29T01:24:34.438Z,5.59
2023-03-29T01:27:05.426Z,5.68
2023-03-29T01:29:40.139Z,5.59
2023-03-29T01:32:16.869Z,5.59
2023-03-29T01:34:53.138Z,5.70
2023-03-29T01:37:28.523Z,5.65
2023-03-29T01:39:54.972Z,5.62
2023-03-29T01:42:38.609Z,5.71
2023-03-29T01:45:16.096Z,5.74
2023-03-29T01:48:05.467Z,5.70
2023-03-29T01:51:03.696Z,5.67
2023-03-29T01:53:38.094Z,5.72
2023-03-29T01:56:13.135Z,5.70
2023-03-29T01:58:40.991Z,5.66
2023-03-29T02:01:10.460Z,5.70
2023-03-29T02:03:42.299Z,5.72
2023-03-29T02:06:15.931Z,5.76
2023-03-29T02:08:44.697Z,5.77
2023-03-29T02:11:11.379Z,5.73
2023-03-29T02:13:37.814Z,5.78
2023-03-29T02:16:09.761Z,5.86
2023-03-29T02:18:36.274Z,5.84
2023-03-29T02:21:02.870Z,5.90
2023-03-29T02:23:38.614Z,5.85
2023-03-29T02:26:06.657Z,5.86
2023-03-29T02:28:33.362Z,5.95
2023-03-29T02:31:11.653Z,5.88
2023-03-29T02:33:54.410Z,5.89
2023-03-29T02:36:29.390Z,5.98
2023-03-29T02:38:57.955Z,5.91
2023-03-29T02:41:25.740Z,5.91
2023-03-29T02:43:53.234Z,5.89
2023-03-29T02:46:20.901Z,5.92
2023-03-29T02:48:49.605Z,5.95
2023-03-29T02:51:21.432Z,5.97
2023-03-29T02:53:57.135Z,5.94
2023-03-29T02:56:23.821Z,5.96
2023-03-29T02:58:50.218Z,5.98
2023-03-29T03:01:18.231Z,6.00
2023-03-29T03:03:45.155Z,6.04
2023-03-29T03:06:12.307Z,6.06
2023-03-29T03:08:38.807Z,6.04
2023-03-29T03:11:05.565Z,6.05
2023-03-29T03:13:31.956Z,6.05
2023-03-29T03:15:58.346Z,6.05
2023-03-29T03:18:24.779Z,6.06
2023-03-29T03:21:04.601Z,6.07
2023-03-29T03:23:31.230Z,6.09
2023-03-29T03:25:58.915Z,6.11
2023-03-29T03:28:27.195Z,6.07
2023-03-29T03:30:54.242Z,6.19
2023-03-29T03:33:20.732Z,6.17
2023-03-29T03:35:47.873Z,6.20
2023-03-29T03:38:15.196Z,6.19
2023-03-29T03:40:41.552Z,6.22
2023-03-29T03:43:08.009Z,6.20
2023-03-29T03:45:34.779Z,6.22
2023-03-29T03:48:01.151Z,6.20
2023-03-29T03:50:28.059Z,6.17
2023-03-29T03:52:54.434Z,6.18
2023-03-29T03:55:21.969Z,6.22
2023-03-29T03:57:48.831Z,6.25
2023-03-29T04:00:21.427Z,6.22
2023-03-29T04:02:48.434Z,6.18
2023-03-29T04:05:16.282Z,6.15
2023-03-29T04:07:42.915Z,6.16
2023-03-29T04:10:11.019Z,6.21
2023-03-29T04:12:38.052Z,6.23
2023-03-29T04:15:05.813Z,6.24
2023-03-29T04:17:32.328Z,6.24
2023-03-29T04:19:58.804Z,6.26
2023-03-29T04:22:25.735Z,6.28
2023-03-29T04:24:52.276Z,6.28
2023-03-29T04:27:18.872Z,6.24
2023-03-29T04:29:45.278Z,6.18
2023-03-29T04:32:11.833Z,6.18
2023-03-29T04:34:38.314Z,6.11
2023-03-29T04:37:10.319Z,6.10
2023-03-29T04:39:37.540Z,5.97
2023-03-29T04:42:05.103Z,5.96
2023-03-29T04:44:33.908Z,5.91
2023-03-29T04:47:01.469Z,5.91
2023-03-29T04:49:27.885Z,5.93
2023-03-29T04:51:54.494Z,5.88
2023-03-29T04:54:21.279Z,5.90
2023-03-29T04:56:47.682Z,5.89
2023-03-29T04:59:14.076Z,5.88
2023-03-29T05:01:40.510Z,5.87
2023-03-29T05:04:06.902Z,5.87
2023-03-29T05:06:33.307Z,5.78
2023-03-29T05:09:01.127Z,5.82
2023-03-29T05:11:27.620Z,5.84
2023-03-29T05:13:57.069Z,5.84
2023-03-29T05:16:24.475Z,5.88
2023-03-29T05:18:51.632Z,5.91
2023-03-29T05:21:18.470Z,5.89
2023-03-29T05:23:44.823Z,5.94
2023-03-29T05:26:14.528Z,5.88
2023-03-29T05:28:41.983Z,5.97
2023-03-29T05:31:08.929Z,5.90
2023-03-29T05:33:36.398Z,5.87
2023-03-29T05:36:06.201Z,5.94
2023-03-29T05:38:32.875Z,5.97
2023-03-29T05:40:59.771Z,6.00
2023-03-29T05:43:27.070Z,6.08
2023-03-29T05:45:54.806Z,6.18
2023-03-29T05:48:23.255Z,6.21
2023-03-29T05:50:51.133Z,6.28
2023-03-29T05:53:18.645Z,6.17
2023-03-29T05:55:46.603Z,6.18
2023-03-29T05:58:14.342Z,6.13
2023-03-29T06:00:41.715Z,6.15
2023-03-29T06:03:18.088Z,6.16
2023-03-29T06:05:49.933Z,6.18
2023-03-29T06:08:17.051Z,6.19
2023-03-29T06:10:43.650Z,6.22
2023-03-29T06:13:10.762Z,6.27
2023-03-29T06:15:37.150Z,6.25
2023-03-29T06:18:04.533Z,6.32
2023-03-29T06:20:31.269Z,6.31
2023-03-29T06:22:58.412Z,6.34
2023-03-29T06:25:24.972Z,6.41
2023-03-29T06:27:52.126Z,6.41
2023-03-29T06:30:19.701Z,6.43
2023-03-29T06:32:46.380Z,6.53
2023-03-29T06:35:12.814Z,6.50
2023-03-29T06:37:41.093Z,6.53
2023-03-29T06:40:09.343Z,6.56
2023-03-29T06:42:35.798Z,6.63
2023-03-29T06:45:02.576Z,6.62
2023-03-29T06:47:31.371Z,6.67
2023-03-29T06:49:57.903Z,6.70
2023-03-29T06:52:24.355Z,6.71
2023-03-29T06:54:50.792Z,6.83
2023-03-29T06:57:17.753Z,6.99
2023-03-29T06:59:44.380Z,6.99
2023-03-29T07:02:12.403Z,7.09
2023-03-29T07:04:39.667Z,7.07
2023-03-29T07:07:07.645Z,7.10
2023-03-29T07:09:35.940Z,7.17
2023-03-29T07:12:02.442Z,7.15
2023-03-29T07:14:29.865Z,7.17
2023-03-29T07:16:58.402Z,7.19
2023-03-29T07:19:27.345Z,7.16
2023-03-29T07:21:54.264Z,7.24
2023-03-29T07:24:21.400Z,7.18
2023-03-29T07:27:00.054Z,7.23
2023-03-29T07:29:29.359Z,7.28
2023-03-29T07:31:56.364Z,7.35
2023-03-29T07:34:22.822Z,7.37
2023-03-29T07:36:49.192Z,7.44
2023-03-29T07:39:15.637Z,7.45
2023-03-29T07:41:42.024Z,7.49
2023-03-29T07:44:09.307Z,7.63
2023-03-29T07:46:36.307Z,7.58
2023-03-29T07:49:05.667Z,7.58
2023-03-29T07:51:32.069Z,7.59
2023-03-29T07:53:59.704Z,7.62
2023-03-29T07:56:26.399Z,7.64
2023-03-29T07:58:52.918Z,7.63
2023-03-29T08:01:19.782Z,7.70
2023-03-29T08:03:46.563Z,7.67
2023-03-29T08:06:13.039Z,7.58
2023-03-29T08:08:39.430Z,7.67
2023-03-29T08:11:08.845Z,7.74
2023-03-29T08:13:35.423Z,7.76
2023-03-29T08:16:01.977Z,7.83
2023-03-29T08:18:28.346Z,7.90
2023-03-29T08:20:54.741Z,7.88
2023-03-29T08:23:21.156Z,7.90
2023-03-29T08:25:47.665Z,7.97
2023-03-29T08:28:14.023Z,8.06
2023-03-29T08:30:40.467Z,8.12
2023-03-29T08:33:06.938Z,8.17
2023-03-29T08:35:33.447Z,8.24
2023-03-29T08:37:59.998Z,8.31
2023-03-29T08:40:29.994Z,8.21
2023-03-29T08:43:07.847Z,8.26
2023-03-29T08:45:47.398Z,8.28
2023-03-29T08:48:21.560Z,8.33
2023-03-29T08:50:54.405Z,8.34
2023-03-29T08:53:28.769Z,8.59
2023-03-29T08:55:59.672Z,8.38
2023-03-29T08:58:31.399Z,8.42
2023-03-29T09:01:00.110Z,8.43
2023-03-29T09:03:42.093Z,8.55
2023-03-29T09:06:11.048Z,8.66
2023-03-29T09:08:41.295Z,8.65
2023-03-29T09:11:29.382Z,8.65
2023-03-29T09:14:17.403Z,8.77
2023-03-29T09:17:03.045Z,8.82
2023-03-29T09:19:58.797Z,8.88
2023-03-29T09:22:39.105Z,9.09
2023-03-29T09:25:27.475Z,9.10
2023-03-29T09:28:17.292Z,9.14
2023-03-29T09:31:13.538Z,9.18
2023-03-29T09:33:43.902Z,9.38
2023-03-29T09:36:23.599Z,9.48
2023-03-29T09:38:54.203Z,9.46
2023-03-29T09:41:33.759Z,9.55
2023-03-29T09:44:05.750Z,9.63
2023-03-29T09:46:42.220Z,9.72
2023-03-29T09:49:21.103Z,9.94
2023-03-29T09:51:49.698Z,9.91
2023-03-29T09:54:16.877Z,10.05
2023-03-29T09:56:43.417Z,9.98
2023-03-29T09:59:12.688Z,9.98
2023-03-29T10:01:46.669Z,10.10
2023-03-29T10:04:14.209Z,10.07
2023-03-29T10:06:50.192Z,10.16
2023-03-29T10:09:24.065Z,10.11
2023-03-29T10:11:56.767Z,10.22
2023-03-29T10:14:35.323Z,10.33
2023-03-29T10:17:06.028Z,10.57
2023-03-29T10:19:34.923Z,10.70
2023-03-29T10:22:23.165Z,10.82
2023-03-29T10:24:52.102Z,10.86
2023-03-29T10:27:30.382Z,10.80
2023-03-29T10:29:59.517Z,10.93
2023-03-29T10:32:33.674Z,10.90
2023-03-29T10:35:24.052Z,11.07
2023-03-29T10:37:57.509Z,11.27
2023-03-29T10:40:30.871Z,11.22
2023-03-29T10:43:11.186Z,11.47
2023-03-29T10:45:38.876Z,11.63
2023-03-29T10:48:06.905Z,11.79
2023-03-29T10:50:35.873Z,11.98
2023-03-29T10:53:03.990Z,12.12
2023-03-29T10:55:40.999Z,12.28
2023-03-29T10:58:23.534Z,12.33
2023-03-29T11:00:56.209Z,12.44
2023-03-29T11:03:26.932Z,12.78
2023-03-29T11:06:11.627Z,13.27
2023-03-29T11:08:48.953Z,13.85
2023-03-29T11:11:36.839Z,14.77
2023-03-29T11:14:32.526Z,15.32
2023-03-29T11:17:12.707Z,15.49
2023-03-29T11:19:52.293Z,16.26
2023-03-29T11:22:36.423Z,15.56
2023-03-29T11:25:44.741Z,14.87
2023-03-29T11:28:19.583Z,14.23
2023-03-29T11:31:04.686Z,13.95
2023-03-29T11:33:50.970Z,13.37
2023-03-29T11:36:22.432Z,13.14
2023-03-29T11:39:13.141Z,12.95
2023-03-29T11:41:44.435Z,12.79
2023-03-29T11:44:33.195Z,12.86
2023-03-29T11:47:02.340Z,13.07
2023-03-29T11:49:46.707Z,12.90
2023-03-29T11:52:18.938Z,13.00
2023-03-29T11:54:51.493Z,12.77
2023-03-29T11:57:27.426Z,12.80
2023-03-29T12:00:15.840Z,12.85
2023-03-29T12:03:05.487Z,12.72
2023-03-29T12:05:42.107Z,12.72
2023-03-29T12:08:16.367Z,12.70
2023-03-29T12:10:56.630Z,12.91
2023-03-29T12:13:33.743Z,13.06
2023-03-29T12:16:08.756Z,13.07
2023-03-29T12:18:42.371Z,13.02
2023-03-29T12:21:17.143Z,13.08
2023-03-29T12:23:44.684Z,13.18
2023-03-29T12:26:20.372Z,13.42
2023-03-29T12:28:49.478Z,13.42
2023-03-29T12:31:15.853Z,13.47
2023-03-29T12:33:58.480Z,13.74
2023-03-29T12:36:54.081Z,13.82
2023-03-29T12:39:21.510Z,13.84
2023-03-29T12:41:53.342Z,13.87
2023-03-29T12:44:24.149Z,13.99
2023-03-29T12:46:57.536Z,13.94
2023-03-29T12:49:29.496Z,13.91
2023-03-29T12:51:58.471Z,14.01
2023-03-29T12:54:28.600Z,13.91
2023-03-29T12:57:00.259Z,13.92
2023-03-29T12:59:47.147Z,14.07
2023-03-29T13:02:17.510Z,14.08
2023-03-29T13:04:43.890Z,14.21
2023-03-29T13:07:31.225Z,14.24
2023-03-29T13:10:30.764Z,14.28
2023-03-29T13:12:57.974Z,14.37
2023-03-29T13:15:26.692Z,14.43
2023-03-29T13:18:06.987Z,14.30
2023-03-29T13:20:47.176Z,14.42
2023-03-29T13:23:58.631Z,14.38
2023-03-29T13:26:41.082Z,14.29
2023-03-29T13:29:36.360Z,14.16
2023-03-29T13:32:11.986Z,14.10
2023-03-29T13:35:19.267Z,14.12
2023-03-29T13:38:15.562Z,14.06
2023-03-29T13:40:51.894Z,14.12
2023-03-29T13:43:21.110Z,14.16
2023-03-29T13:45:56.554Z,14.17
2023-03-29T13:48:31.869Z,14.17
2023-03-29T13:51:08.118Z,14.19
2023-03-29T13:53:37.245Z,14.22
2023-03-29T13:56:07.782Z,14.34
2023-03-29T13:58:42.773Z,14.43
2023-03-29T14:01:36.455Z,14.64
2023-03-29T14:04:05.846Z,14.66
2023-03-29T14:06:34.769Z,14.59
2023-03-29T14:09:06.263Z,14.68
2023-03-29T14:11:33.329Z,14.72
2023-03-29T14:14:02.804Z,14.80
2023-03-29T14:16:35.271Z,14.74
2023-03-29T14:19:11.718Z,14.74
2023-03-29T14:21:38.160Z,14.63
2023-03-29T14:24:05.231Z,14.53
2023-03-29T14:26:35.791Z,14.45
2023-03-29T14:29:02.828Z,14.47
2023-03-29T14:31:36.048Z,14.47
2023-03-29T14:34:05.978Z,14.44
2023-03-29T14:36:33.491Z,14.49
2023-03-29T14:39:05.511Z,14.43
2023-03-29T14:41:37.593Z,14.47
2023-03-29T14:44:06.722Z,14.48
2023-03-29T14:46:34.092Z,14.50
2023-03-29T14:49:02.164Z,14.54
2023-03-29T14:51:31.005Z,14.46
2023-03-29T14:54:00.185Z,14.54
2023-03-29T14:56:27.550Z,14.53
2023-03-29T14:58:56.465Z,14.50
2023-03-29T15:01:25.742Z,14.50
2023-03-29T15:03:56.200Z,14.52
2023-03-29T15:06:25.111Z,14.52
2023-03-29T15:09:04.405Z,14.56
2023-03-29T15:11:33.731Z,14.62
2023-03-29T15:14:08.987Z,14.63
2023-03-29T15:16:44.124Z,14.63
2023-03-29T15:19:18.058Z,14.58
2023-03-29T15:21:45.273Z,14.66
2023-03-29T15:24:21.997Z,14.54
2023-03-29T15:26:59.806Z,14.55
2023-03-29T15:29:35.178Z,14.53
2023-03-29T15:32:02.309Z,14.47
2023-03-29T15:34:33.332Z,14.43
2023-03-29T15:37:00.942Z,14.41
2023-03-29T15:39:28.669Z,14.36
2023-03-29T15:41:56.946Z,14.32
2023-03-29T15:44:28.980Z,14.32
2023-03-29T15:46:57.741Z,14.28
2023-03-29T15:49:24.906Z,14.26
2023-03-29T15:51:55.135Z,14.28
2023-03-29T15:54:22.231Z,14.27
2023-03-29T15:56:53.584Z,14.31
2023-03-29T15:59:20.378Z,14.39
2023-03-29T16:01:47.469Z,14.42
2023-03-29T16:04:18.989Z,14.44
2023-03-29T16:06:48.577Z,14.44
2023-03-29T16:09:17.781Z,14.44
2023-03-29T16:11:46.007Z,14.41
2023-03-29T16:14:22.883Z,14.40
2023-03-29T16:16:50.298Z,14.48
2023-03-29T16:19:16.747Z,14.52
2023-03-29T16:21:43.617Z,14.46
2023-03-29T16:24:19.604Z,14.48
2023-03-29T16:26:46.458Z,14.45
2023-03-29T16:29:12.832Z,14.50
2023-03-29T16:31:39.408Z,14.48
2023-03-29T16:34:06.124Z,14.49
2023-03-29T16:36:33.715Z,14.51
2023-03-29T16:39:00.413Z,14.49
2023-03-29T16:41:27.022Z,14.44
2023-03-29T16:43:53.372Z,14.38
2023-03-29T16:46:19.854Z,14.40
2023-03-29T16:48:46.384Z,14.35
2023-03-29T16:51:12.750Z,14.40
2023-03-29T16:53:39.153Z,14.34
2023-03-29T16:56:06.049Z,14.29
2023-03-29T16:58:32.552Z,14.27
2023-03-29T17:01:09.540Z,14.26
2023-03-29T17:03:37.245Z,14.25
2023-03-29T17:06:04.759Z,14.25
2023-03-29T17:08:32.352Z,14.23
2023-03-29T17:10:59.054Z,14.27
2023-03-29T17:13:25.977Z,14.31
2023-03-29T17:15:54.330Z,14.27
2023-03-29T17:18:22.083Z,14.22
2023-03-29T17:20:51.233Z,14.30
2023-03-29T17:23:17.786Z,14.29
2023-03-29T17:25:44.208Z,14.31
2023-03-29T17:28:10.978Z,14.37
2023-03-29T17:30:37.837Z,14.31
2023-03-29T17:33:05.102Z,14.35
2023-03-29T17:35:32.344Z,14.35
2023-03-29T17:37:58.858Z,14.36
2023-03-29T17:40:25.676Z,14.36
2023-03-29T17:42:52.554Z,14.28
2023-03-29T17:45:19.816Z,14.26
2023-03-29T17:47:46.338Z,14.23
2023-03-29T17:50:12.938Z,14.27
2023-03-29T17:52:39.712Z,14.24
2023-03-29T17:55:13.372Z,14.18
2023-03-29T17:57:41.049Z,14.28
2023-03-29T18:00:12.020Z,14.18
2023-03-29T18:02:39.708Z,14.19
2023-03-29T18:05:08.199Z,14.14
2023-03-29T18:07:34.651Z,14.10
2023-03-29T18:10:01.363Z,14.08
2023-03-29T18:12:28.760Z,14.06
2023-03-29T18:14:56.889Z,14.08
2023-03-29T18:17:24.459Z,14.04
2023-03-29T18:19:51.420Z,14.10
2023-03-29T18:22:18.559Z,14.02
2023-03-29T18:24:46.390Z,14.09
2023-03-29T18:27:13.200Z,14.05
2023-03-29T18:29:39.640Z,14.03
2023-03-29T18:32:07.075Z,14.00
2023-03-29T18:34:34.230Z,13.94
2023-03-29T18:37:00.889Z,13.92
2023-03-29T18:39:27.972Z,13.97
2023-03-29T18:41:54.388Z,13.94
2023-03-29T18:44:22.608Z,13.93
2023-03-29T18:46:48.994Z,13.94
2023-03-29T18:49:15.358Z,13.91
2023-03-29T18:51:42.168Z,13.90
2023-03-29T18:54:08.957Z,13.91
2023-03-29T18:56:35.837Z,13.84
2023-03-29T18:59:06.088Z,13.85
2023-03-29T19:01:33.236Z,13.84
2023-03-29T19:03:59.898Z,13.82
2023-03-29T19:06:26.423Z,13.79
2023-03-29T19:08:53.997Z,13.76
2023-03-29T19:11:20.530Z,13.76
2023-03-29T19:13:50.131Z,13.74
2023-03-29T19:16:17.273Z,13.85
2023-03-29T19:18:43.810Z,13.79
2023-03-29T19:21:10.674Z,13.79
2023-03-29T19:23:37.465Z,13.73
2023-03-29T19:26:05.798Z,13.75
2023-03-29T19:28:33.546Z,13.68
2023-03-29T19:31:01.860Z,13.69
2023-03-29T19:33:29.273Z,13.67
2023-03-29T19:35:56.502Z,13.70
2023-03-29T19:38:23.383Z,13.74
2023-03-29T19:40:51.328Z,13.66
2023-03-29T19:43:18.305Z,13.71
2023-03-29T19:45:46.111Z,13.75
2023-03-29T19:48:21.900Z,13.79
2023-03-29T19:50:49.435Z,13.66
2023-03-29T19:53:15.860Z,13.66
2023-03-29T19:55:44.101Z,13.62
2023-03-29T19:58:10.613Z,13.55
2023-03-29T20:00:38.795Z,13.57
2023-03-29T20:03:09.120Z,13.56
2023-03-29T20:05:37.144Z,13.54
2023-03-29T20:08:03.902Z,13.52
2023-03-29T20:10:30.609Z,13.55
2023-03-29T20:12:57.045Z,13.50
2023-03-29T20:15:26.257Z,13.47
2023-03-29T20:17:55.336Z,13.44
2023-03-29T20:20:25.519Z,13.46
2023-03-29T20:22:53.913Z,13.42
2023-03-29T20:25:21.137Z,13.49
2023-03-29T20:27:49.508Z,13.41
2023-03-29T20:30:16.360Z,13.34
2023-03-29T20:32:43.028Z,13.39
2023-03-29T20:35:11.030Z,13.32
2023-03-29T20:37:37.473Z,13.31
2023-03-29T20:40:05.368Z,13.29
2023-03-29T20:42:34.284Z,13.30
2023-03-29T20:45:01.852Z,13.19
2023-03-29T20:47:29.296Z,13.18
2023-03-29T20:49:56.736Z,13.18
2023-03-29T20:52:24.374Z,13.18
2023-03-29T20:54:51.007Z,13.14
2023-03-29T20:57:20.668Z,13.06
2023-03-29T20:59:49.145Z,13.08
2023-03-29T21:02:21.755Z,12.99
2023-03-29T21:04:52.791Z,12.97
2023-03-29T21:07:21.222Z,12.94
2023-03-29T21:09:49.800Z,12.93
2023-03-29T21:12:16.701Z,12.90
2023-03-29T21:14:43.485Z,12.86
2023-03-29T21:17:10.263Z,12.82
2023-03-29T21:19:38.217Z,12.83
2023-03-29T21:22:05.308Z,12.82
2023-03-29T21:24:32.969Z,12.76
2023-03-29T21:27:00.514Z,12.83
2023-03-29T21:29:27.295Z,12.77
2023-03-29T21:31:54.017Z,12.78
2023-03-29T21:34:20.559Z,12.81
2023-03-29T21:36:47.128Z,12.77
2023-03-29T21:39:13.630Z,12.77
2023-03-29T21:41:39.989Z,12.80
2023-03-29T21:44:06.444Z,12.81
2023-03-29T21:46:32.969Z,12.79
2023-03-29T21:48:59.312Z,12.76
2023-03-29T21:51:25.691Z,12.73
2023-03-29T21:53:52.052Z,12.70
2023-03-29T21:56:18.388Z,12.77
2023-03-29T21:58:44.842Z,12.77
2023-03-29T22:01:11.252Z,12.74
2023-03-29T22:03:38.030Z,12.76
2023-03-29T22:06:10.390Z,12.80
2023-03-29T22:08:40.073Z,12.82
2023-03-29T22:11:10.910Z,12.79
2023-03-29T22:13:37.681Z,12.80
2023-03-29T22:16:05.409Z,12.79
2023-03-29T22:18:42.887Z,12.80
2023-03-29T22:21:14.394Z,12.73
2023-03-29T22:23:42.316Z,12.77
2023-03-29T22:26:11.006Z,12.72
2023-03-29T22:28:37.953Z,12.75
2023-03-29T22:31:06.999Z,12.69
2023-03-29T22:33:34.714Z,12.66
2023-03-29T22:36:02.473Z,12.65
2023-03-29T22:38:29.424Z,12.63
2023-03-29T22:40:55.956Z,12.62
2023-03-29T22:43:22.388Z,12.58
2023-03-29T22:45:48.836Z,12.64
2023-03-29T22:48:15.406Z,12.63
2023-03-29T22:50:42.889Z,12.59
2023-03-29T22:53:10.199Z,12.60
2023-03-29T22:55:37.092Z,12.59
2023-03-29T22:58:04.011Z,12.54
2023-03-29T23:00:30.886Z,12.53
2023-03-29T23:02:57.655Z,12.54
2023-03-29T23:05:24.217Z,12.50
2023-03-29T23:07:50.629Z,12.48
2023-03-29T23:10:17.395Z,12.50
2023-03-29T23:12:43.856Z,12.49
2023-03-29T23:15:11.309Z,12.50
2023-03-29T23:17:37.694Z,12.43
2023-03-29T23:20:08.359Z,12.37
2023-03-29T23:22:36.239Z,12.40
2023-03-29T23:25:02.633Z,12.41
2023-03-29T23:27:29.212Z,12.41
2023-03-29T23:29:56.208Z,12.40
2023-03-29T23:32:22.586Z,12.40
2023-03-29T23:34:48.942Z,12.43
2023-03-29T23:37:15.331Z,12.43
2023-03-29T23:39:41.766Z,12.42
2023-03-29T23:42:08.161Z,12.45
2023-03-29T23:44:34.539Z,12.48
2023-03-29T23:47:00.973Z,12.45
2023-03-29T23:49:28.105Z,12.43
2023-03-29T23:51:55.894Z,12.47
2023-03-29T23:54:22.472Z,12.56
2023-03-29T23:56:48.915Z,12.48
2023-03-29T23:59:15.346Z,12.55
